Time;durP1;ratioP1;P1;durP2;ratioP2;P2;SDS_P1;SDS_P2;PMS_P1;PMS_P2;Temp;Humidity;BMP_temperature;BMP_pressure;BME280_temperature;BME280_humidity;BME280_pressure;Samples;Min_cycle;Max_cycle;Signal;HPM_P1;HPM_P2
2022/06/25 00:01:57;;;;;;;2.20;2.10;;;18.40;99.90;;;;;;5072673;28;20220;-79
2022/06/25 00:07:07;;;;;;;6.18;2.22;;;18.40;99.90;;;;;;5074246;28;20165;-79
2022/06/25 00:09:32;;;;;;;2.40;2.00;;;18.30;99.90;;;;;;5072930;28;20197;-79
2022/06/25 00:14:43;;;;;;;2.25;2.05;;;18.20;99.90;;;;;;5073991;28;20218;-79
2022/06/25 00:17:09;;;;;;;2.90;2.17;;;18.10;99.90;;;;;;5074956;28;20286;-79
2022/06/25 00:19:35;;;;;;;2.63;2.42;;;18.10;99.90;;;;;;5076064;28;20650;-79
2022/06/25 00:22:01;;;;;;;2.85;2.25;;;18.10;99.90;;;;;;5076821;28;20279;-79
2022/06/25 00:24:26;;;;;;;2.88;2.67;;;18.00;99.90;;;;;;5076967;28;20206;-79
2022/06/25 00:26:52;;;;;;;2.70;2.50;;;17.90;99.90;;;;;;5076033;28;20174;-79
2022/06/25 00:29:17;;;;;;;2.40;2.20;;;17.90;99.90;;;;;;5076164;28;20294;-79
2022/06/25 00:31:43;;;;;;;2.70;2.30;;;17.90;99.90;;;;;;5076993;28;20176;-79
2022/06/25 00:34:09;;;;;;;2.40;2.20;;;17.90;99.90;;;;;;5075758;28;20629;-79
2022/06/25 00:36:34;;;;;;;2.55;2.40;;;18.00;99.90;;;;;;5075696;28;20599;-79
2022/06/25 00:39:00;;;;;;;2.78;2.58;;;18.00;99.90;;;;;;5075858;28;20204;-79
2022/06/25 00:42:13;;;;;;;2.67;2.40;;;18.10;99.90;;;;;;5077391;28;20176;-79
2022/06/25 00:44:39;;;;;;;2.92;2.63;;;18.00;99.90;;;;;;5075642;28;20209;-80
2022/06/25 00:47:09;;;;;;;4.25;2.38;;;18.00;99.90;;;;;;5075644;28;20336;-79
2022/06/25 00:49:36;;;;;;;2.35;2.13;;;18.10;99.90;;;;;;5075549;28;20691;-79
2022/06/25 00:52:22;;;;;;;2.17;2.08;;;18.10;99.90;;;;;;5075937;28;20715;-79
2022/06/25 00:55:12;;;;;;;2.40;2.15;;;18.10;99.90;;;;;;5077082;28;20172;-79
2022/06/25 00:57:43;;;;;;;3.58;2.40;;;18.10;99.90;;;;;;5077046;28;20173;-79
2022/06/25 01:00:17;;;;;;;3.47;2.30;;;17.90;99.90;;;;;;5076237;28;20201;-79
2022/06/25 01:02:44;;;;;;;2.42;2.30;;;17.80;99.90;;;;;;5076249;28;20167;-79
2022/06/25 01:05:12;;;;;;;2.65;2.45;;;17.80;99.90;;;;;;5075771;28;20205;-79
2022/06/25 01:07:39;;;;;;;3.42;2.50;;;17.70;99.90;;;;;;5075402;28;20197;-79
2022/06/25 01:10:06;;;;;;;4.05;2.33;;;17.70;99.90;;;;;;5075306;28;20177;-79
2022/06/25 01:12:33;;;;;;;5.53;2.72;;;17.60;99.90;;;;;;5075707;28;20170;-79
2022/06/25 01:15:08;;;;;;;2.55;2.35;;;17.50;99.90;;;;;;5074826;28;20552;-79
2022/06/25 01:17:36;;;;;;;2.78;2.55;;;17.50;99.90;;;;;;5075612;28;20180;-79
2022/06/25 01:20:04;;;;;;;2.78;2.50;;;17.50;99.90;;;;;;5075216;28;20177;-79
2022/06/25 01:22:31;;;;;;;2.95;2.65;;;17.50;99.90;;;;;;5075018;28;20290;-79
2022/06/25 01:24:57;;;;;;;4.07;2.50;;;17.50;99.90;;;;;;5074651;28;20299;-79
2022/06/25 01:27:22;;;;;;;3.28;2.80;;;17.40;99.90;;;;;;5074412;28;20184;-79
2022/06/25 01:29:48;;;;;;;2.95;2.75;;;17.40;99.90;;;;;;5074558;28;20197;-79
2022/06/25 01:32:13;;;;;;;2.95;2.60;;;17.40;99.90;;;;;;5076195;28;20632;-79
2022/06/25 01:34:39;;;;;;;2.50;2.30;;;17.50;99.90;;;;;;5074966;28;20585;-79
2022/06/25 01:37:05;;;;;;;7.43;2.80;;;17.40;99.90;;;;;;5074528;28;20185;-79
2022/06/25 01:39:30;;;;;;;3.53;2.80;;;17.40;99.90;;;;;;5074174;28;20609;-79
2022/06/25 01:41:56;;;;;;;3.08;2.78;;;17.50;99.90;;;;;;5074535;28;20176;-79
2022/06/25 01:44:21;;;;;;;4.38;2.78;;;17.50;99.90;;;;;;5074187;28;20231;-79
2022/06/25 01:46:47;;;;;;;6.00;3.00;;;17.50;99.90;;;;;;5074565;28;20204;-79
2022/06/25 01:49:12;;;;;;;3.50;3.20;;;17.50;99.90;;;;;;5075728;28;20284;-79
2022/06/25 01:51:38;;;;;;;4.97;3.53;;;17.50;99.90;;;;;;5074082;28;20215;-79
2022/06/25 01:54:04;;;;;;;3.67;3.35;;;17.50;99.90;;;;;;5074214;28;20170;-79
2022/06/25 01:56:29;;;;;;;3.97;3.60;;;17.30;99.90;;;;;;5074032;28;20170;-79
2022/06/25 01:58:55;;;;;;;6.25;3.80;;;17.40;99.90;;;;;;5074372;28;20660;-79
2022/06/25 02:01:20;;;;;;;6.75;3.90;;;17.30;99.90;;;;;;5074060;28;20547;-79
2022/06/25 02:03:46;;;;;;;4.00;3.65;;;17.30;99.90;;;;;;5075543;28;20201;-79
2022/06/25 02:06:12;;;;;;;4.45;3.80;;;17.30;99.90;;;;;;5074992;28;20205;-79
2022/06/25 02:08:38;;;;;;;4.57;4.18;;;17.20;99.90;;;;;;5073803;28;20208;-79
2022/06/25 02:11:07;;;;;;;6.18;3.65;;;17.20;99.90;;;;;;5074169;28;20177;-79
2022/06/25 02:13:33;;;;;;;3.88;3.50;;;17.20;99.90;;;;;;5074586;28;20203;-79
2022/06/25 02:16:00;;;;;;;4.72;3.22;;;17.30;99.90;;;;;;5073950;28;20174;-79
2022/06/25 02:18:26;;;;;;;4.35;3.53;;;17.50;99.90;;;;;;5073633;28;20197;-79
2022/06/25 02:20:53;;;;;;;4.72;3.17;;;17.50;99.90;;;;;;5075131;28;20685;-79
2022/06/25 02:23:20;;;;;;;3.70;3.38;;;17.60;99.90;;;;;;5073884;28;20181;-79
2022/06/25 02:25:46;;;;;;;3.42;3.13;;;17.80;99.90;;;;;;5074226;28;20205;-79
2022/06/25 02:28:12;;;;;;;3.00;2.78;;;17.80;99.90;;;;;;5073559;28;20193;-79
2022/06/25 02:30:37;;;;;;;5.13;3.25;;;17.90;99.90;;;;;;5075157;28;20173;-79
2022/06/25 02:33:07;;;;;;;8.00;3.25;;;17.90;99.90;;;;;;5074373;28;20174;-79
2022/06/25 02:35:32;;;;;;;4.80;3.47;;;17.90;99.90;;;;;;5074534;28;20220;-79
2022/06/25 02:37:58;;;;;;;4.30;3.00;;;17.90;99.90;;;;;;5073734;28;20197;-79
2022/06/25 02:40:23;;;;;;;4.45;3.10;;;17.90;99.90;;;;;;5072673;28;20641;-79
2022/06/25 02:42:49;;;;;;;5.43;3.42;;;17.90;99.90;;;;;;5074667;28;20185;-79
2022/06/25 02:45:14;;;;;;;5.38;3.05;;;17.80;99.90;;;;;;5073057;28;20576;-79
2022/06/25 02:47:40;;;;;;;5.13;3.05;;;17.80;99.90;;;;;;5073080;28;20170;-79
2022/06/25 02:50:07;;;;;;;4.88;3.13;;;17.90;99.90;;;;;;5073185;28;20177;-79
2022/06/25 02:52:33;;;;;;;5.20;3.17;;;17.90;99.90;;;;;;5074612;28;20638;-79
2022/06/25 02:54:59;;;;;;;4.75;2.67;;;17.80;99.90;;;;;;5073241;28;20291;-79
2022/06/25 03:00:09;;;;;;;3.45;3.00;;;17.90;99.90;;;;;;5074897;28;20196;-79
2022/06/25 03:02:35;;;;;;;4.03;3.22;;;17.90;99.90;;;;;;5072891;28;20189;-79
2022/06/25 03:05:02;;;;;;;4.78;2.85;;;17.90;99.90;;;;;;5073248;28;20212;-79
2022/06/25 03:07:28;;;;;;;3.25;2.97;;;17.90;99.90;;;;;;5072842;28;20316;-79
2022/06/25 03:09:54;;;;;;;3.38;2.97;;;17.90;99.90;;;;;;5073817;28;20714;-79
2022/06/25 03:12:20;;;;;;;3.35;2.95;;;17.90;99.90;;;;;;5073055;28;20177;-79
2022/06/25 03:14:45;;;;;;;7.85;3.00;;;17.90;99.90;;;;;;5072591;28;20268;-79
2022/06/25 03:17:11;;;;;;;5.07;3.15;;;18.00;99.90;;;;;;5072797;28;20182;-79
2022/06/25 03:19:37;;;;;;;3.92;3.00;;;18.10;99.90;;;;;;5074180;28;20205;-79
2022/06/25 03:22:02;;;;;;;5.15;3.08;;;18.10;99.90;;;;;;5072772;28;20559;-79
2022/06/25 03:24:28;;;;;;;4.25;3.00;;;18.20;99.90;;;;;;5072661;28;20270;-79
2022/06/25 03:26:54;;;;;;;4.53;3.03;;;18.10;99.90;;;;;;5072956;28;20264;-79
2022/06/25 03:29:19;;;;;;;4.45;2.83;;;18.10;99.90;;;;;;5074027;28;20220;-79
2022/06/25 03:31:45;;;;;;;3.53;2.90;;;18.20;99.90;;;;;;5072754;28;20176;-79
2022/06/25 03:34:11;;;;;;;3.40;3.10;;;18.20;99.90;;;;;;5074235;28;20190;-79
2022/06/25 03:36:37;;;;;;;3.15;2.83;;;18.20;99.90;;;;;;5072558;28;20260;-79
2022/06/25 03:39:03;;;;;;;5.72;3.20;;;18.20;99.90;;;;;;5072898;28;20196;-79
2022/06/25 03:41:32;;;;;;;4.45;2.95;;;18.10;99.90;;;;;;5073278;28;20513;-79
2022/06/25 03:44:03;;;;;;;3.25;2.95;;;18.20;99.90;;;;;;5073127;28;20178;-79
2022/06/25 03:46:29;;;;;;;3.90;3.08;;;18.10;99.90;;;;;;5072934;28;20184;-79
2022/06/25 03:48:55;;;;;;;4.65;2.92;;;18.10;99.90;;;;;;5072734;28;20189;-79
2022/06/25 03:51:21;;;;;;;5.38;3.45;;;18.20;99.90;;;;;;5074599;28;20243;-79
2022/06/25 03:53:46;;;;;;;4.90;3.15;;;18.20;99.90;;;;;;5077349;28;20170;-79
2022/06/25 03:56:12;;;;;;;3.85;3.20;;;18.20;99.90;;;;;;5076567;28;20181;-79
2022/06/25 03:58:38;;;;;;;3.35;3.03;;;18.20;99.90;;;;;;5076087;28;20292;-79
2022/06/25 04:01:04;;;;;;;3.10;2.85;;;18.20;99.90;;;;;;5076423;28;20186;-79
2022/06/25 04:03:30;;;;;;;3.88;3.30;;;18.20;99.90;;;;;;5076542;28;20186;-79
2022/06/25 04:05:56;;;;;;;3.78;3.03;;;18.20;99.90;;;;;;5076297;28;20743;-79
2022/06/25 04:08:21;;;;;;;2.97;2.78;;;18.20;99.90;;;;;;5076220;28;20201;-79
2022/06/25 04:10:47;;;;;;;3.92;3.55;;;18.30;99.90;;;;;;5076073;28;20174;-79
2022/06/25 04:13:13;;;;;;;4.97;3.30;;;18.20;99.90;;;;;;5076884;28;20174;-79
2022/06/25 04:15:39;;;;;;;4.65;3.25;;;18.30;99.90;;;;;;5076973;28;20662;-79
2022/06/25 04:18:05;;;;;;;4.82;3.30;;;18.30;99.90;;;;;;5076046;28;20231;-79
2022/06/25 04:20:31;;;;;;;3.60;3.30;;;18.30;99.90;;;;;;5075837;28;20185;-79
2022/06/25 04:22:57;;;;;;;5.05;3.30;;;18.40;99.90;;;;;;5076694;28;20178;-79
2022/06/25 04:25:23;;;;;;;4.55;3.28;;;18.40;99.90;;;;;;5076659;28;20209;-79
2022/06/25 04:30:32;;;;;;;5.75;3.38;;;18.40;99.90;;;;;;5077488;28;20207;-79
2022/06/25 04:32:58;;;;;;;3.83;3.20;;;18.50;99.90;;;;;;5075737;28;20307;-79
2022/06/25 04:35:23;;;;;;;3.10;2.90;;;18.60;99.90;;;;;;5075880;28;20193;-79
2022/06/25 04:37:49;;;;;;;3.17;2.90;;;18.70;99.90;;;;;;5075533;28;20193;-79
2022/06/25 04:40:15;;;;;;;5.50;3.60;;;18.80;99.90;;;;;;5077138;28;20184;-79
2022/06/25 04:42:40;;;;;;;3.45;3.22;;;18.80;99.90;;;;;;5075833;28;20181;-79
2022/06/25 04:45:07;;;;;;;5.40;3.10;;;18.80;99.90;;;;;;5075610;28;20201;-79
2022/06/25 04:47:32;;;;;;;4.43;3.13;;;18.90;99.90;;;;;;5076225;28;20170;-79
2022/06/25 04:49:58;;;;;;;4.43;2.92;;;19.00;99.90;;;;;;5076674;28;20849;-79
2022/06/25 04:52:23;;;;;;;5.07;3.10;;;19.20;99.90;;;;;;5075162;28;20170;-79
2022/06/25 04:54:49;;;;;;;3.33;2.90;;;19.30;99.90;;;;;;5075203;28;20173;-79
2022/06/25 04:57:14;;;;;;;3.47;2.90;;;19.40;99.90;;;;;;5075418;28;20207;-79
2022/06/25 04:59:40;;;;;;;3.83;2.67;;;19.40;99.90;;;;;;5075919;28;20193;-79
2022/06/25 05:02:06;;;;;;;3.30;3.00;;;19.50;99.90;;;;;;5074683;28;20295;-79
2022/06/25 05:04:31;;;;;;;2.83;2.70;;;19.60;99.90;;;;;;5075590;28;20205;-79
2022/06/25 05:06:58;;;;;;;7.30;2.92;;;19.80;99.90;;;;;;5075285;28;20174;-79
2022/06/25 05:09:26;;;;;;;3.53;2.80;;;19.90;99.90;;;;;;5076564;28;20322;-79
2022/06/25 05:11:51;;;;;;;3.67;2.58;;;20.10;99.90;;;;;;5075210;28;20174;-79
2022/06/25 05:14:17;;;;;;;3.95;2.63;;;20.30;99.90;;;;;;5075383;28;20191;-80
2022/06/25 05:16:45;;;;;;;3.58;2.50;;;20.40;99.90;;;;;;5074933;28;20204;-80
2022/06/25 05:19:11;;;;;;;5.97;2.88;;;20.30;99.90;;;;;;5075670;28;20251;-80
2022/06/25 05:21:37;;;;;;;2.97;2.67;;;20.20;99.90;;;;;;5074908;28;20607;-80
2022/06/25 05:24:03;;;;;;;4.75;2.97;;;20.00;99.90;;;;;;5075268;28;20177;-80
2022/06/25 05:26:28;;;;;;;3.00;2.63;;;19.90;99.90;;;;;;5075577;28;20178;-80
2022/06/25 05:28:54;;;;;;;3.78;2.80;;;19.90;99.90;;;;;;5075247;28;20193;-80
2022/06/25 05:31:20;;;;;;;4.45;2.63;;;19.90;99.90;;;;;;5074591;28;20173;-80
2022/06/25 05:33:45;;;;;;;6.72;3.03;;;19.90;99.90;;;;;;5075132;28;20216;-80
2022/06/25 05:36:11;;;;;;;2.72;2.53;;;19.70;99.90;;;;;;5074742;28;20177;-80
2022/06/25 05:38:37;;;;;;;4.72;2.70;;;19.80;99.90;;;;;;5074723;28;20295;-80
2022/06/25 05:41:08;;;;;;;4.35;3.08;;;19.70;99.90;;;;;;5074451;28;20189;-80
2022/06/25 05:43:34;;;;;;;6.95;2.80;;;19.90;99.90;;;;;;5075130;28;20173;-80
2022/06/25 05:46:00;;;;;;;3.80;2.97;;;20.00;99.90;;;;;;5075061;28;20292;-80
2022/06/25 05:48:25;;;;;;;4.45;2.80;;;20.10;99.90;;;;;;5074546;28;20278;-80
2022/06/25 05:50:51;;;;;;;3.03;2.55;;;20.30;99.90;;;;;;5075988;28;20174;-80
2022/06/25 05:53:16;;;;;;;5.18;2.70;;;20.50;99.90;;;;;;5074417;28;20517;-80
2022/06/25 05:55:42;;;;;;;2.63;2.25;;;20.80;99.90;;;;;;5074083;28;20247;-79
2022/06/25 05:58:07;;;;;;;3.22;2.35;;;21.10;99.90;;;;;;5074764;28;20208;-80
2022/06/25 06:00:33;;;;;;;2.45;2.28;;;21.50;99.90;;;;;;5074078;28;20209;-80
2022/06/25 06:02:59;;;;;;;3.00;2.40;;;21.70;99.90;;;;;;5074276;28;20613;-79
2022/06/25 06:05:24;;;;;;;2.83;2.30;;;21.60;99.90;;;;;;5074136;28;20256;-79
2022/06/25 06:08:09;;;;;;;2.28;2.08;;;21.70;99.90;;;;;;5073742;28;20173;-80
2022/06/25 06:10:34;;;;;;;3.42;2.13;;;21.80;99.90;;;;;;5074982;28;20166;-80
2022/06/25 06:13:00;;;;;;;2.58;2.38;;;21.80;99.90;;;;;;5074513;28;20174;-80
2022/06/25 06:15:26;;;;;;;2.63;2.00;;;22.00;99.90;;;;;;5073981;28;20264;-80
2022/06/25 06:17:51;;;;;;;4.20;2.10;;;22.00;99.90;;;;;;5073606;28;20209;-80
2022/06/25 06:20:17;;;;;;;4.72;2.08;;;21.90;99.90;;;;;;5074937;28;20174;-80
2022/06/25 06:22:42;;;;;;;3.85;2.00;;;22.40;99.90;;;;;;5074153;28;20230;-80
2022/06/25 06:25:08;;;;;;;2.20;2.00;;;23.00;99.90;;;;;;5073267;28;20212;-80
2022/06/25 06:27:34;;;;;;;2.13;1.92;;;23.60;99.90;;;;;;5073287;28;20178;-80
2022/06/25 06:30:00;;;;;;;4.28;1.90;;;24.00;97.40;;;;;;5073130;28;20201;-80
2022/06/25 06:32:25;;;;;;;2.33;1.90;;;24.50;95.90;;;;;;5073967;28;20265;-80
2022/06/25 06:34:51;;;;;;;5.40;1.98;;;24.80;93.70;;;;;;5073341;28;20196;-80
2022/06/25 06:37:17;;;;;;;4.40;1.80;;;25.30;92.00;;;;;;5073018;28;20323;-80
2022/06/25 06:39:42;;;;;;;2.45;1.85;;;25.80;90.20;;;;;;5074477;28;20197;-80
2022/06/25 06:42:08;;;;;;;3.35;1.70;;;25.70;88.40;;;;;;5074217;28;20177;-81
2022/06/25 06:44:34;;;;;;;2.10;1.90;;;25.30;88.40;;;;;;5073170;28;20292;-81
2022/06/25 06:47:00;;;;;;;2.53;2.17;;;24.80;89.10;;;;;;5073809;28;20647;-81
2022/06/25 06:49:25;;;;;;;2.10;2.00;;;24.30;90.70;;;;;;5072779;28;20303;-81
2022/06/25 06:51:51;;;;;;;1.70;1.60;;;24.10;91.40;;;;;;5073114;28;20173;-81
2022/06/25 06:54:16;;;;;;;7.05;2.05;;;24.60;91.60;;;;;;5073065;28;20173;-81
2022/06/25 06:56:42;;;;;;;2.15;1.88;;;25.00;90.90;;;;;;5072868;28;20176;-81
2022/06/25 06:59:08;;;;;;;4.35;1.80;;;25.10;89.30;;;;;;5074158;28;20281;-81
2022/06/25 07:01:34;;;;;;;2.53;1.98;;;24.80;88.90;;;;;;5073020;28;20260;-80
2022/06/25 07:03:59;;;;;;;3.42;2.10;;;24.50;90.00;;;;;;5072738;28;20181;-80
2022/06/25 07:06:25;;;;;;;10.60;2.40;;;24.10;90.80;;;;;;5073523;28;20217;-80
2022/06/25 07:08:50;;;;;;;4.22;2.17;;;23.80;91.00;;;;;;5072545;28;20279;-80
2022/06/25 07:11:28;;;;;;;3.53;2.20;;;23.40;91.70;;;;;;5074067;28;20174;-80
2022/06/25 07:14:37;;;;;;;3.65;2.00;;;23.40;92.60;;;;;;5072659;28;20704;-80
2022/06/25 07:17:03;;;;;;;3.67;2.20;;;23.40;92.90;;;;;;5072780;28;20227;-81
2022/06/25 07:19:28;;;;;;;3.17;2.05;;;23.60;93.00;;;;;;5072432;28;20206;-80
2022/06/25 07:21:54;;;;;;;3.10;2.00;;;23.70;92.70;;;;;;5072907;28;20195;-80
2022/06/25 07:24:21;;;;;;;3.38;1.92;;;23.80;92.40;;;;;;5072310;28;20177;-80
2022/06/25 07:26:47;;;;;;;4.18;2.10;;;24.00;91.60;;;;;;5072425;28;20170;-80
2022/06/25 07:29:13;;;;;;;2.38;2.20;;;23.80;91.50;;;;;;5073563;28;20186;-81
2022/06/25 07:31:38;;;;;;;2.20;1.90;;;23.70;91.80;;;;;;5072299;28;20545;-81
2022/06/25 07:34:04;;;;;;;2.30;2.10;;;23.50;92.00;;;;;;5073011;28;20193;-80
2022/06/25 07:36:33;;;;;;;2.78;2.22;;;23.50;92.10;;;;;;5073137;28;20225;-80
2022/06/25 07:39:00;;;;;;;3.92;2.30;;;23.40;92.30;;;;;;5073227;28;20254;-80
2022/06/25 07:41:26;;;;;;;3.20;2.10;;;23.80;91.30;;;;;;5073127;28;20264;-80
2022/06/25 07:43:52;;;;;;;2.67;2.08;;;24.10;91.00;;;;;;5073022;28;20215;-79
2022/06/25 07:46:19;;;;;;;2.25;2.10;;;24.20;90.00;;;;;;5073041;28;20233;-81
2022/06/25 07:48:45;;;;;;;4.45;2.05;;;24.30;91.00;;;;;;5073392;28;20743;-81
2022/06/25 07:53:54;;;;;;;2.65;1.95;;;24.10;90.70;;;;;;5074632;28;20207;-81
2022/06/25 07:56:20;;;;;;;2.95;2.10;;;24.20;90.30;;;;;;5073184;28;20177;-81
2022/06/25 07:58:45;;;;;;;3.33;2.05;;;24.20;90.20;;;;;;5072904;28;20209;-81
2022/06/25 08:01:11;;;;;;;2.40;2.17;;;24.30;90.50;;;;;;5073006;28;20181;-81
2022/06/25 08:03:37;;;;;;;3.15;2.20;;;24.10;90.80;;;;;;5073819;28;20173;-81
2022/06/25 08:06:04;;;;;;;3.15;2.13;;;24.10;90.60;;;;;;5072423;28;20236;-81
2022/06/25 08:08:29;;;;;;;2.85;2.10;;;24.10;90.70;;;;;;5072835;28;20201;-81
2022/06/25 08:11:15;;;;;;;2.15;1.95;;;24.20;90.70;;;;;;5072580;28;20173;-81
2022/06/25 08:13:40;;;;;;;2.97;1.90;;;24.20;89.60;;;;;;5073771;28;20204;-81
2022/06/25 08:16:09;;;;;;;2.13;1.75;;;24.30;87.70;;;;;;5073286;28;20177;-81
2022/06/25 08:18:35;;;;;;;3.42;1.88;;;24.60;87.80;;;;;;5073207;28;20668;-81
2022/06/25 08:21:06;;;;;;;2.05;1.95;;;24.40;87.00;;;;;;5073210;28;20189;-81
2022/06/25 08:23:31;;;;;;;2.08;1.98;;;24.40;88.50;;;;;;5072787;28;20177;-81
2022/06/25 08:25:57;;;;;;;3.05;1.88;;;24.60;86.40;;;;;;5072667;28;20232;-81
2022/06/25 08:28:24;;;;;;;2.78;1.88;;;24.80;83.90;;;;;;5073089;28;20285;-81
2022/06/25 08:30:49;;;;;;;6.25;2.20;;;25.20;84.40;;;;;;5072536;28;20254;-80
2022/06/25 08:33:15;;;;;;;4.60;2.25;;;24.90;85.60;;;;;;5073089;28;20174;-81
2022/06/25 08:35:47;;;;;;;2.85;2.10;;;24.50;86.40;;;;;;5072996;28;20268;-81
2022/06/25 08:38:13;;;;;;;5.10;2.03;;;24.70;86.20;;;;;;5074564;28;20209;-81
2022/06/25 08:40:39;;;;;;;2.33;2.03;;;25.10;82.30;;;;;;5077152;28;20181;-80
2022/06/25 08:43:11;;;;;;;2.03;1.88;;;25.30;81.40;;;;;;5080826;28;20178;-80
2022/06/25 08:45:37;;;;;;;5.15;1.92;;;25.60;81.00;;;;;;5080078;28;20231;-80
2022/06/25 08:48:11;;;;;;;5.10;2.15;;;25.60;81.60;;;;;;5079497;28;20566;-80
2022/06/25 08:50:36;;;;;;;2.28;1.90;;;25.10;82.80;;;;;;5079674;28;20228;-80
2022/06/25 08:53:02;;;;;;;2.17;1.92;;;25.00;83.20;;;;;;5080513;28;20197;-80
2022/06/25 08:55:36;;;;;;;4.82;2.00;;;25.40;81.70;;;;;;5081174;28;20212;-80
2022/06/25 08:58:03;;;;;;;2.45;2.25;;;25.30;80.10;;;;;;5077063;28;20205;-80
2022/06/25 09:00:31;;;;;;;2.47;1.88;;;24.80;80.80;;;;;;5075807;28;20732;-80
2022/06/25 09:03:00;;;;;;;2.42;1.80;;;24.60;83.10;;;;;;5075969;28;20334;-80
2022/06/25 09:05:31;;;;;;;2.30;1.95;;;24.90;83.10;;;;;;5075531;28;20562;-80
2022/06/25 09:08:06;;;;;;;1.90;1.77;;;25.20;81.40;;;;;;5076671;28;20257;-80
2022/06/25 09:10:52;;;;;;;2.20;1.52;;;25.50;79.50;;;;;;5076933;28;20227;-80
2022/06/25 09:13:27;;;;;;;2.53;1.77;;;25.60;80.60;;;;;;5078910;28;20303;-81
2022/06/25 09:16:01;;;;;;;3.05;1.70;;;25.70;77.10;;;;;;5076066;28;20165;-81
2022/06/25 09:18:33;;;;;;;2.17;1.80;;;25.40;78.50;;;;;;5077325;28;20278;-81
2022/06/25 09:21:10;;;;;;;1.55;1.50;;;25.40;79.40;;;;;;5075940;28;20165;-81
2022/06/25 09:24:00;;;;;;;1.85;1.70;;;25.70;77.00;;;;;;5075984;28;20180;-81
2022/06/25 09:26:26;;;;;;;2.70;1.60;;;25.80;76.00;;;;;;5078340;28;20294;-81
2022/06/25 09:28:51;;;;;;;2.45;2.08;;;25.80;76.20;;;;;;5079163;28;20194;-80
2022/06/25 09:31:50;;;;;;;1.70;1.60;;;25.30;75.20;;;;;;5079059;28;20173;-80
2022/06/25 09:34:16;;;;;;;1.80;1.70;;;25.30;76.70;;;;;;5044968;28;20205;-80
2022/06/25 09:36:44;;;;;;;1.70;1.60;;;25.50;75.70;;;;;;5082646;28;20184;-80
2022/06/25 09:39:10;;;;;;;1.60;1.50;;;25.70;75.10;;;;;;5081572;28;20209;-80
2022/06/25 09:41:59;;;;;;;3.45;1.55;;;25.80;74.30;;;;;;5083462;28;20522;-80
2022/06/25 09:44:27;;;;;;;1.58;1.48;;;26.10;72.90;;;;;;5082841;28;20168;-80
2022/06/25 09:46:56;;;;;;;1.63;1.52;;;26.20;73.40;;;;;;5083623;28;20237;-80
2022/06/25 09:49:26;;;;;;;1.50;1.40;;;26.20;73.40;;;;;;5084042;28;20200;-80
2022/06/25 09:52:05;;;;;;;2.05;1.50;;;26.30;70.40;;;;;;5080963;28;20177;-80
2022/06/25 09:54:34;;;;;;;1.50;1.40;;;26.40;69.40;;;;;;5077356;28;20195;-80
2022/06/25 09:57:01;;;;;;;1.70;1.60;;;26.40;69.20;;;;;;5077083;28;20169;-80
2022/06/25 09:59:30;;;;;;;1.55;1.45;;;26.10;71.30;;;;;;5076062;28;20205;-80
2022/06/25 10:02:01;;;;;;;3.15;1.70;;;25.60;71.30;;;;;;5076600;28;20256;-81
2022/06/25 10:04:30;;;;;;;1.42;1.33;;;25.60;73.00;;;;;;5076258;28;20619;-81
2022/06/25 10:07:00;;;;;;;1.48;1.33;;;25.60;69.10;;;;;;5073914;28;20177;-81
2022/06/25 10:13:01;;;;;;;2.97;1.50;;;26.10;66.70;;;;;;5075645;28;20245;-80
2022/06/25 10:15:27;;;;;;;1.50;1.40;;;26.30;65.80;;;;;;5075121;28;20169;-80
2022/06/25 10:17:53;;;;;;;1.42;1.38;;;26.50;66.80;;;;;;5074060;28;20188;-80
2022/06/25 10:20:21;;;;;;;1.70;1.40;;;26.40;64.80;;;;;;5076717;28;20178;-80
2022/06/25 10:22:48;;;;;;;1.50;1.35;;;26.70;64.90;;;;;;5077145;28;20172;-80
2022/06/25 10:25:20;;;;;;;4.07;1.33;;;26.90;64.60;;;;;;5076111;28;20290;-80
2022/06/25 10:27:47;;;;;;;2.55;1.50;;;26.50;62.70;;;;;;5074750;28;20170;-80
2022/06/25 10:30:33;;;;;;;4.90;1.58;;;26.40;65.10;;;;;;5076037;28;20170;-80
2022/06/25 10:32:59;;;;;;;3.03;1.33;;;26.10;65.40;;;;;;5076429;28;20169;-80
2022/06/25 10:35:31;;;;;;;2.22;1.40;;;26.00;64.90;;;;;;5074546;28;20197;-80
2022/06/25 10:38:07;;;;;;;1.33;1.23;;;26.20;65.70;;;;;;5074403;28;20197;-80
2022/06/25 10:40:46;;;;;;;1.40;1.33;;;26.50;62.50;;;;;;5074194;28;20585;-80
2022/06/25 10:43:42;;;;;;;2.97;1.52;;;26.80;62.70;;;;;;5073087;28;20213;-80
2022/06/25 10:46:33;;;;;;;1.70;1.30;;;26.60;59.80;;;;;;5074699;28;20208;-81
2022/06/25 10:49:32;;;;;;;2.90;1.42;;;25.80;60.10;;;;;;5076362;28;20204;-80
2022/06/25 10:52:02;;;;;;;1.40;1.30;;;25.50;62.40;;;;;;5076202;28;20639;-80
2022/06/25 10:54:29;;;;;;;2.22;1.27;;;25.60;63.50;;;;;;5074628;28;20632;-81
2022/06/25 10:57:04;;;;;;;1.63;1.38;;;25.90;63.50;;;;;;5075872;28;20643;-81
2022/06/25 10:59:37;;;;;;;1.38;1.27;;;26.40;62.30;;;;;;5077886;28;20201;-80
2022/06/25 11:02:06;;;;;;;1.38;1.27;;;26.70;58.90;;;;;;5079536;28;20177;-80
2022/06/25 11:04:38;;;;;;;1.38;1.27;;;26.90;59.70;;;;;;5077307;28;20189;-79
2022/06/25 11:07:33;;;;;;;3.53;1.30;;;26.60;58.80;;;;;;5074311;28;20172;-80
2022/06/25 11:10:01;;;;;;;1.40;1.30;;;26.50;59.30;;;;;;5073908;28;20251;-82
2022/06/25 11:12:34;;;;;;;1.52;1.40;;;26.40;60.60;;;;;;5073160;28;20173;-81
2022/06/25 11:15:13;;;;;;;1.27;1.17;;;26.50;59.70;;;;;;5073919;28;20169;-80
2022/06/25 11:17:39;;;;;;;1.83;1.27;;;26.60;58.20;;;;;;5073982;28;20176;-80
2022/06/25 11:20:13;;;;;;;1.55;1.40;;;26.80;57.80;;;;;;5076083;28;20173;-80
2022/06/25 11:22:54;;;;;;;1.20;1.20;;;27.20;57.80;;;;;;5077547;28;20154;-80
2022/06/25 11:31:04;;;;;;;2.03;1.30;;;27.60;56.80;;;;;;5079373;28;20164;-80
2022/06/25 11:33:34;;;;;;;1.63;1.33;;;27.50;57.50;;;;;;5075293;28;20631;-80
2022/06/25 11:39:18;;;;;;;1.15;1.15;;;27.60;55.80;;;;;;5077098;28;20288;-80
2022/06/25 11:41:49;;;;;;;1.30;1.20;;;27.50;54.40;;;;;;5073872;28;20164;-80
2022/06/25 11:44:15;;;;;;;1.20;1.20;;;27.40;55.00;;;;;;5074134;28;20157;-80
2022/06/25 11:46:40;;;;;;;1.55;1.45;;;27.30;55.30;;;;;;5072712;28;20177;-81
2022/06/25 11:49:06;;;;;;;2.88;1.30;;;27.30;56.30;;;;;;5072400;28;20292;-81
2022/06/25 11:51:32;;;;;;;1.98;1.38;;;27.30;55.10;;;;;;5072618;28;20213;-81
2022/06/25 11:54:06;;;;;;;2.33;1.40;;;27.10;54.30;;;;;;5072779;28;20645;-84
2022/06/25 11:56:55;;;;;;;3.58;1.52;;;26.70;55.60;;;;;;5073769;28;20169;-80
2022/06/25 12:00:13;;;;;;;2.47;1.40;;;26.40;57.70;;;;;;5075714;28;20199;-80
2022/06/25 12:02:56;;;;;;;3.75;1.60;;;26.30;57.60;;;;;;5069960;28;20291;-80
2022/06/25 12:05:59;;;;;;;1.30;1.30;;;26.50;56.70;;;;;;5073002;28;20270;-80
2022/06/25 12:08:49;;;;;;;4.15;1.40;;;26.50;58.20;;;;;;5076297;28;20193;-80
2022/06/25 12:11:27;;;;;;;3.53;1.45;;;26.60;56.60;;;;;;5021222;28;20689;-80
2022/06/25 12:14:22;;;;;;;1.63;1.27;;;27.00;56.30;;;;;;5026551;28;20187;-80
2022/06/25 12:17:11;;;;;;;2.33;1.48;;;27.30;54.30;;;;;;5039661;28;20178;-80
2022/06/25 12:20:03;;;;;;;2.35;1.40;;;27.40;54.00;;;;;;5022981;28;20203;-80
2022/06/25 12:23:14;;;;;;;;;;;;;;;;;;;;;
2022/06/25 12:25:46;;;;;;;1.42;1.15;;;27.60;54.50;;;;;;5001133;28;20240;-80
2022/06/25 12:28:40;;;;;;;2.95;1.40;;;27.70;53.30;;;;;;5019965;28;20213;-80
2022/06/25 12:31:15;;;;;;;1.55;1.30;;;27.70;53.20;;;;;;5018900;28;20248;-80
2022/06/25 12:33:48;;;;;;;1.50;1.38;;;27.60;51.70;;;;;;5018771;28;20174;-80
2022/06/25 12:36:23;;;;;;;2.60;1.35;;;27.40;51.10;;;;;;5072228;28;20606;-80
2022/06/25 12:38:49;;;;;;;2.20;1.30;;;27.30;52.20;;;;;;5076268;28;20258;-80
2022/06/25 12:41:59;;;;;;;1.40;1.30;;;27.30;51.20;;;;;;5075890;28;20640;-80
2022/06/25 12:44:39;;;;;;;3.08;1.38;;;27.30;52.80;;;;;;5077682;28;20169;-81
2022/06/25 12:47:09;;;;;;;2.42;1.50;;;27.40;52.90;;;;;;5075974;28;20158;-81
2022/06/25 12:49:51;;;;;;;1.75;1.50;;;27.60;52.70;;;;;;5078054;28;20217;-80
2022/06/25 12:52:43;;;;;;;1.48;1.38;;;27.60;51.40;;;;;;5077009;28;20177;-80
2022/06/25 12:55:46;;;;;;;1.58;1.27;;;27.60;50.90;;;;;;5078827;28;20180;-80
2022/06/25 12:58:32;;;;;;;1.50;1.38;;;27.60;51.20;;;;;;5075595;28;20760;-81
2022/06/25 13:04:20;;;;;;;2.38;1.10;;;27.90;49.50;;;;;;5077061;28;20157;-81
2022/06/25 13:06:45;;;;;;;1.38;1.27;;;27.90;49.00;;;;;;5075706;28;20177;-81
2022/06/25 13:10:09;;;;;;;1.40;1.30;;;27.70;48.90;;;;;;5076898;28;20216;-81
2022/06/25 13:13:06;;;;;;;1.52;1.38;;;27.20;50.20;;;;;;5075523;28;20162;-80
2022/06/25 13:15:34;;;;;;;4.25;1.30;;;27.00;51.60;;;;;;5078002;28;20590;-80
2022/06/25 13:18:04;;;;;;;1.40;1.35;;;27.00;52.20;;;;;;5081345;28;20201;-80
2022/06/25 13:20:33;;;;;;;2.13;1.35;;;27.30;52.60;;;;;;5080652;28;20739;-80
2022/06/25 13:23:04;;;;;;;1.73;1.58;;;27.60;51.40;;;;;;5080603;28;20223;-80
2022/06/25 13:25:30;;;;;;;1.50;1.45;;;27.70;51.50;;;;;;5084246;28;20204;-80
2022/06/25 13:28:00;;;;;;;3.13;1.50;;;27.60;51.90;;;;;;5081013;28;20185;-80
2022/06/25 13:30:28;;;;;;;1.80;1.30;;;27.40;51.60;;;;;;5077796;28;20166;-80
2022/06/25 13:32:58;;;;;;;2.00;1.27;;;27.20;51.00;;;;;;5078957;28;20207;-80